createdAt,value
2022-11-01T00:02:19.100Z,9.50
2022-11-01T00:04:46.641Z,6.53
2022-11-01T00:07:14.127Z,7.67
2022-11-01T00:09:41.542Z,8.40
2022-11-01T00:12:08.963Z,8.40
2022-11-01T00:14:36.746Z,7.77
2022-11-01T00:17:04.460Z,6.53
2022-11-01T00:19:31.978Z,7.37
2022-11-01T00:21:59.424Z,6.83
2022-11-01T00:24:27.084Z,6.40
2022-11-01T00:26:54.585Z,6.67
2022-11-01T00:29:22.033Z,5.70
2022-11-01T00:31:49.750Z,5.57
2022-11-01T00:34:18.033Z,5.43
2022-11-01T00:36:45.479Z,5.97
2022-11-01T00:39:16.753Z,5.20
2022-11-01T00:41:44.186Z,5.47
2022-11-01T00:44:11.693Z,5.10
2022-11-01T00:46:40.432Z,5.03
2022-11-01T00:49:07.851Z,4.90
2022-11-01T00:51:35.283Z,4.83
2022-11-01T00:54:02.747Z,4.13
2022-11-01T00:56:30.232Z,4.83
2022-11-01T00:58:57.665Z,4.73
2022-11-01T01:01:25.319Z,4.87
2022-11-01T01:03:52.837Z,5.20
2022-11-01T01:06:20.511Z,5.23
2022-11-01T01:08:47.900Z,4.60
2022-11-01T01:11:15.889Z,4.83
2022-11-01T01:13:43.471Z,4.30
2022-11-01T01:16:13.050Z,4.40
2022-11-01T01:18:40.770Z,3.90
2022-11-01T01:21:08.594Z,4.40
2022-11-01T01:23:37.187Z,4.00
2022-11-01T01:26:09.704Z,4.30
2022-11-01T01:28:41.878Z,4.50
2022-11-01T01:31:14.177Z,4.43
2022-11-01T01:33:41.745Z,3.90
2022-11-01T01:36:09.436Z,5.13
2022-11-01T01:38:37.133Z,5.83
2022-11-01T01:41:24.129Z,5.53
2022-11-01T01:43:51.600Z,4.70
2022-11-01T01:46:19.074Z,4.73
2022-11-01T01:48:52.510Z,5.80
2022-11-01T01:51:26.048Z,11.43
2022-11-01T01:53:55.975Z,17.57
2022-11-01T01:56:43.724Z,17.67
2022-11-01T01:59:11.767Z,17.63
2022-11-01T02:01:41.974Z,13.93
2022-11-01T02:04:22.416Z,8.10
2022-11-01T02:06:50.293Z,6.83
2022-11-01T02:09:19.058Z,6.47
2022-11-01T02:11:47.318Z,5.60
2022-11-01T02:14:15.434Z,5.10
2022-11-01T02:17:06.883Z,4.23
2022-11-01T02:20:20.958Z,4.23
2022-11-01T02:23:28.443Z,4.10
2022-11-01T02:26:22.924Z,3.83
2022-11-01T02:29:39.650Z,4.00
2022-11-01T02:32:25.104Z,3.30
2022-11-01T02:35:36.666Z,3.87
2022-11-01T02:38:19.346Z,4.10
2022-11-01T02:41:17.116Z,4.73
2022-11-01T02:44:00.531Z,4.27
2022-11-01T02:46:55.817Z,3.80
2022-11-01T02:49:26.795Z,4.00
2022-11-01T02:51:57.016Z,3.90
2022-11-01T02:54:33.362Z,3.70
2022-11-01T02:57:20.875Z,3.53
2022-11-01T02:59:49.627Z,3.40
2022-11-01T03:02:41.082Z,3.93
2022-11-01T03:05:20.248Z,3.80
2022-11-01T03:08:00.224Z,3.60
2022-11-01T03:10:53.440Z,4.20
2022-11-01T03:13:56.740Z,3.80
2022-11-01T03:16:36.653Z,4.20
2022-11-01T03:19:26.415Z,4.30
2022-11-01T03:22:23.909Z,3.17
2022-11-01T03:24:56.813Z,3.57
2022-11-01T03:27:32.678Z,4.53
2022-11-01T03:30:07.205Z,21.40
2022-11-01T03:32:45.957Z,14.00
2022-11-01T03:35:25.785Z,15.07
2022-11-01T03:37:59.252Z,9.87
2022-11-01T03:40:29.596Z,8.40
2022-11-01T03:43:05.375Z,5.90
2022-11-01T03:45:37.720Z,6.37
2022-11-01T03:48:06.553Z,6.00
2022-11-01T03:50:34.978Z,5.63
2022-11-01T03:53:02.822Z,5.87
2022-11-01T03:55:30.271Z,6.07
2022-11-01T03:58:00.436Z,7.23
2022-11-01T04:00:36.651Z,8.90
2022-11-01T04:03:04.507Z,11.13
2022-11-01T04:05:34.180Z,10.83
2022-11-01T04:08:06.066Z,13.87
2022-11-01T04:10:34.083Z,12.90
2022-11-01T04:13:02.215Z,24.20
2022-11-01T04:15:48.996Z,22.73
2022-11-01T04:18:42.881Z,20.50
2022-11-01T04:21:14.332Z,15.57
2022-11-01T04:23:43.096Z,13.83
2022-11-01T04:26:19.340Z,12.27
2022-11-01T04:28:57.234Z,10.10
2022-11-01T04:31:36.966Z,10.27
2022-11-01T04:34:05.954Z,9.33
2022-11-01T04:36:33.400Z,7.40
2022-11-01T04:39:00.893Z,8.73
2022-11-01T04:41:30.177Z,8.63
2022-11-01T04:43:59.964Z,7.97
2022-11-01T04:46:32.063Z,7.67
2022-11-01T04:49:00.084Z,7.47
2022-11-01T04:51:27.698Z,11.17
2022-11-01T04:53:55.256Z,11.73
2022-11-01T04:56:22.654Z,13.53
2022-11-01T04:58:50.066Z,13.87
2022-11-01T05:01:17.913Z,15.77
2022-11-01T05:03:45.423Z,15.03
2022-11-01T05:06:12.890Z,13.17
2022-11-01T05:08:40.339Z,11.87
2022-11-01T05:11:07.816Z,12.17
2022-11-01T05:13:36.056Z,13.00
2022-11-01T05:16:21.000Z,14.23
2022-11-01T05:18:51.542Z,13.03
2022-11-01T05:21:19.053Z,12.40
2022-11-01T05:23:49.157Z,11.97
2022-11-01T05:26:17.332Z,14.00
2022-11-01T05:28:44.785Z,14.50
2022-11-01T05:31:12.399Z,13.63
2022-11-01T05:33:39.826Z,13.87
2022-11-01T05:36:07.703Z,12.13
2022-11-01T05:38:35.171Z,12.77
2022-11-01T05:41:04.433Z,11.27
2022-11-01T05:43:31.946Z,19.17
2022-11-01T05:46:02.831Z,10.17
2022-11-01T05:48:30.419Z,10.03
2022-11-01T05:50:57.819Z,9.17
2022-11-01T05:53:25.418Z,9.53
2022-11-01T05:55:55.760Z,9.60
2022-11-01T05:58:26.511Z,10.13
2022-11-01T06:01:06.537Z,11.87
2022-11-01T06:03:36.256Z,9.83
2022-11-01T06:06:04.281Z,9.70
2022-11-01T06:08:32.662Z,10.03
2022-11-01T06:11:04.852Z,13.40
2022-11-01T06:13:33.574Z,13.70
2022-11-01T06:16:05.129Z,13.00
2022-11-01T06:18:35.668Z,13.10
2022-11-01T06:21:03.113Z,10.93
2022-11-01T06:23:30.626Z,9.47
2022-11-01T06:26:03.801Z,8.67
2022-11-01T06:28:33.383Z,8.53
2022-11-01T06:31:03.372Z,6.43
2022-11-01T06:33:32.418Z,6.77
2022-11-01T06:36:01.567Z,7.50
2022-11-01T06:38:29.129Z,7.03
2022-11-01T06:40:58.300Z,6.57
2022-11-01T06:43:25.825Z,8.70
2022-11-01T06:45:53.420Z,7.43
2022-11-01T06:48:20.901Z,10.83
2022-11-01T06:50:48.355Z,8.27
2022-11-01T06:53:15.812Z,6.63
2022-11-01T06:55:43.291Z,6.30
2022-11-01T06:58:10.760Z,6.30
2022-11-01T07:00:38.230Z,6.30
2022-11-01T07:03:13.359Z,6.70
2022-11-01T07:05:41.743Z,5.60
2022-11-01T07:08:13.009Z,5.53
2022-11-01T07:10:43.166Z,4.90
2022-11-01T07:13:13.646Z,5.17
2022-11-01T07:15:42.333Z,4.80
2022-11-01T07:18:10.455Z,4.80
2022-11-01T07:20:42.127Z,4.87
2022-11-01T07:23:14.351Z,6.17
2022-11-01T07:25:42.546Z,4.63
2022-11-01T07:28:10.799Z,4.60
2022-11-01T07:30:39.300Z,4.53
2022-11-01T07:33:07.169Z,5.17
2022-11-01T07:35:35.674Z,5.40
2022-11-01T07:38:06.424Z,5.97
2022-11-01T07:40:40.301Z,4.73
2022-11-01T07:43:09.863Z,5.93
2022-11-01T07:45:37.469Z,7.33
2022-11-01T07:48:17.043Z,5.67
2022-11-01T07:50:48.088Z,5.43
2022-11-01T07:53:19.409Z,6.17
2022-11-01T07:55:47.473Z,6.70
2022-11-01T07:58:20.765Z,6.20
2022-11-01T08:00:48.298Z,6.53
2022-11-01T08:03:19.520Z,6.07
2022-11-01T08:05:48.696Z,6.90
2022-11-01T08:08:16.836Z,7.60
2022-11-01T08:10:46.304Z,6.70
2022-11-01T08:13:19.335Z,6.30
2022-11-01T08:15:49.193Z,6.70
2022-11-01T08:18:20.262Z,6.47
2022-11-01T08:20:47.926Z,7.47
2022-11-01T08:23:15.689Z,7.80
2022-11-01T08:25:43.462Z,6.70
2022-11-01T08:28:17.692Z,6.07
2022-11-01T08:30:49.072Z,7.70
2022-11-01T08:33:16.630Z,5.97
2022-11-01T08:35:50.133Z,6.73
2022-11-01T08:38:20.149Z,5.77
2022-11-01T08:40:48.299Z,6.23
2022-11-01T08:43:16.022Z,6.30
2022-11-01T08:45:43.473Z,6.20
2022-11-01T08:48:11.402Z,5.00
2022-11-01T08:50:39.320Z,6.27
2022-11-01T08:53:12.946Z,5.87
2022-11-01T08:55:41.676Z,5.67
2022-11-01T08:58:09.920Z,4.80
2022-11-01T09:00:38.003Z,5.53
2022-11-01T09:03:05.675Z,5.88
2022-11-01T09:05:33.290Z,5.43
2022-11-01T09:08:01.996Z,5.75
2022-11-01T09:10:32.985Z,4.57
2022-11-01T09:13:01.786Z,5.47
2022-11-01T09:15:31.163Z,4.90
2022-11-01T09:17:58.732Z,5.80
2022-11-01T09:20:28.251Z,7.57
2022-11-01T09:22:55.725Z,15.40
2022-11-01T09:25:23.196Z,7.57
2022-11-01T09:27:50.663Z,4.38
2022-11-01T09:30:18.430Z,43.08
2022-11-01T09:32:46.125Z,21.27
2022-11-01T09:35:13.545Z,6.57
2022-11-01T09:37:41.047Z,21.90
2022-11-01T09:40:11.327Z,9.07
2022-11-01T09:43:03.393Z,6.78
2022-11-01T09:45:34.976Z,8.73
2022-11-01T09:48:13.670Z,6.70
2022-11-01T09:50:43.851Z,6.40
2022-11-01T09:53:30.514Z,6.65
2022-11-01T09:56:10.391Z,4.53
2022-11-01T09:59:04.892Z,4.70
2022-11-01T10:01:41.195Z,5.35
2022-11-01T10:04:45.994Z,5.55
2022-11-01T10:07:52.566Z,3.90
2022-11-01T10:10:44.248Z,3.63
2022-11-01T10:13:49.921Z,3.90
2022-11-01T10:16:42.093Z,4.25
2022-11-01T10:19:19.005Z,3.85
2022-11-01T10:21:50.693Z,4.03
2022-11-01T10:24:41.520Z,3.85
2022-11-01T10:27:40.978Z,3.95
2022-11-01T10:30:17.336Z,4.10
2022-11-01T10:32:55.743Z,3.58
2022-11-01T10:35:41.308Z,3.95
2022-11-01T10:38:59.169Z,3.60
2022-11-01T10:41:52.373Z,3.40
2022-11-01T10:44:33.878Z,3.65
2022-11-01T10:47:07.181Z,4.18
2022-11-01T10:52:45.447Z,4.20
2022-11-01T10:55:25.225Z,4.22
2022-11-01T10:58:05.481Z,4.05
2022-11-01T11:00:38.280Z,4.22
2022-11-01T11:03:27.958Z,4.30
2022-11-01T11:05:59.455Z,4.45
2022-11-01T11:08:27.471Z,3.60
2022-11-01T11:11:01.694Z,4.65
2022-11-01T11:13:50.513Z,3.30
2022-11-01T11:16:47.230Z,3.38
2022-11-01T11:19:26.332Z,3.72
2022-11-01T11:21:56.060Z,3.83
2022-11-01T11:24:39.362Z,3.42
2022-11-01T11:27:33.587Z,3.30
2022-11-01T11:30:05.683Z,3.30
2022-11-01T11:32:35.967Z,3.42
2022-11-01T11:35:14.985Z,3.35
2022-11-01T11:37:59.731Z,3.03
2022-11-01T11:40:42.376Z,2.63
2022-11-01T11:43:30.423Z,3.58
2022-11-01T11:46:36.804Z,3.08
2022-11-01T11:49:07.289Z,3.53
2022-11-01T11:51:39.439Z,2.97
2022-11-01T11:54:24.778Z,2.80
2022-11-01T11:57:10.120Z,3.63
2022-11-01T11:59:38.585Z,2.92
2022-11-01T12:02:40.999Z,2.97
2022-11-01T12:05:17.212Z,3.20
2022-11-01T12:07:56.923Z,2.80
2022-11-01T12:10:46.771Z,2.40
2022-11-01T12:13:37.622Z,2.92
2022-11-01T12:16:25.079Z,3.15
2022-11-01T12:19:01.703Z,2.78
2022-11-01T12:21:35.952Z,2.80
2022-11-01T12:24:34.309Z,3.47
2022-11-01T12:27:10.303Z,2.80
2022-11-01T12:29:57.894Z,3.00
2022-11-01T12:32:54.128Z,2.78
2022-11-01T12:35:33.160Z,2.92
2022-11-01T12:38:09.907Z,2.63
2022-11-01T12:40:39.254Z,3.20
2022-11-01T12:43:49.711Z,2.63
2022-11-01T12:46:34.677Z,2.92
2022-11-01T12:50:05.236Z,3.13
2022-11-01T12:52:44.856Z,3.63
2022-11-01T12:55:35.182Z,2.83
2022-11-01T12:58:04.158Z,2.70
2022-11-01T13:01:13.513Z,2.50
2022-11-01T13:03:48.055Z,2.65
2022-11-01T13:06:59.954Z,2.83
2022-11-01T13:10:07.197Z,3.83
2022-11-01T13:13:27.700Z,3.13
2022-11-01T13:16:27.966Z,5.25
2022-11-01T13:19:23.380Z,3.38
2022-11-01T13:21:56.486Z,2.58
2022-11-01T13:24:32.069Z,2.70
2022-11-01T13:27:19.819Z,3.13
2022-11-01T13:30:15.841Z,3.00
2022-11-01T13:33:02.137Z,2.50
2022-11-01T13:35:53.272Z,2.67
2022-11-01T13:38:40.585Z,2.45
2022-11-01T13:41:35.340Z,3.85
2022-11-01T13:44:20.982Z,2.50
2022-11-01T13:47:23.479Z,2.50
2022-11-01T13:50:25.909Z,9.57
2022-11-01T13:53:04.841Z,3.50
2022-11-01T13:55:43.886Z,2.40
2022-11-01T13:58:22.075Z,3.33
2022-11-01T14:00:55.684Z,4.10
2022-11-01T14:03:25.889Z,2.72
2022-11-01T14:09:25.998Z,2.72
2022-11-01T14:12:31.900Z,2.75
2022-11-01T14:15:27.840Z,3.05
2022-11-01T14:18:07.462Z,2.60
2022-11-01T14:20:44.562Z,4.80
2022-11-01T14:23:30.213Z,3.03
2022-11-01T14:26:20.010Z,2.88
2022-11-01T14:28:51.477Z,2.97
2022-11-01T14:31:24.635Z,4.93
2022-11-01T14:33:59.881Z,3.33
2022-11-01T14:36:33.063Z,4.78
2022-11-01T14:39:40.106Z,3.20
2022-11-01T14:42:13.326Z,5.28
2022-11-01T14:44:49.738Z,3.67
2022-11-01T14:47:39.719Z,3.88
2022-11-01T14:51:03.742Z,3.35
2022-11-01T14:53:38.450Z,2.83
2022-11-01T14:56:27.388Z,2.78
2022-11-01T14:59:22.186Z,3.47
2022-11-01T15:01:59.488Z,3.05
2022-11-01T15:04:33.591Z,2.50
2022-11-01T15:07:02.266Z,2.97
2022-11-01T15:09:31.934Z,3.40
2022-11-01T15:12:11.278Z,3.30
2022-11-01T15:14:47.319Z,3.40
2022-11-01T15:17:30.668Z,3.65
2022-11-01T15:19:59.984Z,2.65
2022-11-01T15:22:31.414Z,2.92
2022-11-01T15:25:03.572Z,3.10
2022-11-01T15:27:44.298Z,3.25
2022-11-01T15:30:20.495Z,3.20
2022-11-01T15:32:54.033Z,2.83
2022-11-01T15:35:26.576Z,3.30
2022-11-01T15:37:55.442Z,3.67
2022-11-01T15:40:37.376Z,3.58
2022-11-01T15:43:05.370Z,3.28
2022-11-01T15:45:36.974Z,3.47
2022-11-01T15:48:14.823Z,3.92
2022-11-01T15:50:50.149Z,4.47
2022-11-01T15:53:24.797Z,3.90
2022-11-01T15:56:24.593Z,4.43
2022-11-01T16:01:29.052Z,4.00
2022-11-01T16:04:10.592Z,4.28
2022-11-01T16:06:47.304Z,4.53
2022-11-01T16:09:45.908Z,4.97
2022-11-01T16:12:25.843Z,6.53
2022-11-01T16:15:06.370Z,7.47
2022-11-01T16:18:01.836Z,8.23
2022-11-01T16:20:41.355Z,9.30
2022-11-01T16:23:15.558Z,9.27
2022-11-01T16:25:43.399Z,7.90
2022-11-01T16:28:13.767Z,8.95
2022-11-01T16:30:51.178Z,9.20
2022-11-01T16:33:35.396Z,9.55
2022-11-01T16:36:34.352Z,9.23
2022-11-01T16:39:02.022Z,8.00
2022-11-01T16:41:38.085Z,8.05
2022-11-01T16:44:16.327Z,8.65
2022-11-01T16:46:44.375Z,8.23
2022-11-01T16:49:14.697Z,9.90
2022-11-01T16:51:42.491Z,10.73
2022-11-01T16:54:10.658Z,10.93
2022-11-01T16:56:51.715Z,10.82
2022-11-01T16:59:34.347Z,10.30
2022-11-01T17:02:22.116Z,9.50
2022-11-01T17:05:19.520Z,8.87
2022-11-01T17:07:48.206Z,9.18
2022-11-01T17:10:22.443Z,9.23
2022-11-01T17:12:54.173Z,9.10
2022-11-01T17:15:21.734Z,10.10
2022-11-01T17:17:49.852Z,9.80
2022-11-01T17:23:27.244Z,8.67
2022-11-01T17:25:57.645Z,8.00
2022-11-01T17:28:25.224Z,7.67
2022-11-01T17:30:53.336Z,7.37
2022-11-01T17:33:22.058Z,7.30
2022-11-01T17:35:49.779Z,7.37
2022-11-01T17:38:30.278Z,6.30
2022-11-01T17:41:00.955Z,6.50
2022-11-01T17:43:29.856Z,6.00
2022-11-01T17:46:00.147Z,5.67
2022-11-01T17:48:27.635Z,6.07
2022-11-01T17:51:01.709Z,5.83
2022-11-01T17:53:31.614Z,5.97
2022-11-01T17:56:00.378Z,5.33
2022-11-01T17:58:30.120Z,4.83
2022-11-01T18:01:00.666Z,5.23
2022-11-01T18:03:28.710Z,4.60
2022-11-01T18:06:02.262Z,4.60
2022-11-01T18:08:35.229Z,4.70
2022-11-01T18:11:22.890Z,4.90
2022-11-01T18:14:26.694Z,4.70
2022-11-01T18:17:11.358Z,4.73
2022-11-01T18:20:11.288Z,5.83
2022-11-01T18:22:57.982Z,6.03
2022-11-01T18:25:49.797Z,6.43
2022-11-01T18:28:24.837Z,7.13
2022-11-01T18:31:35.314Z,9.67
2022-11-01T18:35:04.252Z,10.60
2022-11-01T18:38:26.058Z,8.70
2022-11-01T18:41:03.117Z,10.10
2022-11-01T18:43:56.906Z,9.07
2022-11-01T18:46:33.277Z,8.67
2022-11-01T18:49:06.016Z,10.17
2022-11-01T18:51:36.870Z,12.53
2022-11-01T18:54:33.112Z,14.17
2022-11-01T18:57:12.499Z,13.80
2022-11-01T18:59:41.703Z,13.20
2022-11-01T19:02:11.967Z,13.50
2022-11-01T19:04:49.157Z,14.20
2022-11-01T19:07:35.151Z,14.83
2022-11-01T19:10:22.257Z,11.53
2022-11-01T19:12:56.911Z,12.97
2022-11-01T19:15:26.008Z,18.03
2022-11-01T19:17:58.892Z,12.57
2022-11-01T19:20:39.141Z,11.00
2022-11-01T19:23:20.899Z,9.93
2022-11-01T19:25:51.859Z,8.37
2022-11-01T19:28:40.660Z,8.00
2022-11-01T19:31:32.787Z,7.80
2022-11-01T19:34:08.054Z,8.27
2022-11-01T19:36:41.286Z,8.60
2022-11-01T19:39:24.890Z,8.53
2022-11-01T19:41:54.595Z,10.43
2022-11-01T19:44:26.749Z,9.13
2022-11-01T19:47:25.327Z,8.67
2022-11-01T19:49:53.548Z,8.10
2022-11-01T19:52:30.643Z,7.13
2022-11-01T19:54:59.471Z,8.03
2022-11-01T19:57:44.855Z,9.07
2022-11-01T20:00:16.388Z,8.40
2022-11-01T20:02:48.997Z,8.87
2022-11-01T20:05:56.784Z,9.80
2022-11-01T20:08:36.319Z,10.70
2022-11-01T20:11:03.882Z,12.37
2022-11-01T20:13:32.481Z,9.73
2022-11-01T20:16:00.507Z,8.13
2022-11-01T20:18:28.021Z,7.00
2022-11-01T20:20:56.530Z,6.77
2022-11-01T20:23:26.694Z,6.17
2022-11-01T20:25:55.872Z,5.90
2022-11-01T20:28:23.761Z,5.63
2022-11-01T20:30:51.507Z,5.97
2022-11-01T20:33:19.838Z,6.07
2022-11-01T20:35:49.464Z,6.70
2022-11-01T20:38:17.166Z,7.73
2022-11-01T20:40:47.099Z,8.03
2022-11-01T20:43:14.831Z,8.30
2022-11-01T20:45:43.234Z,6.33
2022-11-01T20:48:10.751Z,6.53
2022-11-01T20:50:41.596Z,5.83
2022-11-01T20:53:09.926Z,4.40
2022-11-01T20:55:38.716Z,4.60
2022-11-01T20:58:06.590Z,4.50
2022-11-01T21:00:35.985Z,4.70
2022-11-01T21:03:21.937Z,4.03
2022-11-01T21:05:51.097Z,3.97
2022-11-01T21:08:33.583Z,4.43
2022-11-01T21:11:06.415Z,4.93
2022-11-01T21:13:46.129Z,4.50
2022-11-01T21:16:30.728Z,4.83
2022-11-01T21:19:04.072Z,4.43
2022-11-01T21:21:45.323Z,4.77
2022-11-01T21:24:34.764Z,4.70
2022-11-01T21:27:26.682Z,4.70
2022-11-01T21:30:14.350Z,5.03
2022-11-01T21:32:45.021Z,5.87
2022-11-01T21:35:38.501Z,5.53
2022-11-01T21:38:36.217Z,7.50
2022-11-01T21:41:31.687Z,7.97
2022-11-01T21:44:20.949Z,8.30
2022-11-01T21:47:13.884Z,8.73
2022-11-01T21:49:41.651Z,15.93
2022-11-01T21:54:48.133Z,22.57
2022-11-01T21:57:17.088Z,19.97
2022-11-01T21:59:44.879Z,18.03
2022-11-01T22:02:15.167Z,17.90
2022-11-01T22:04:44.024Z,14.53
2022-11-01T22:07:13.123Z,13.50
2022-11-01T22:09:40.960Z,13.37
2022-11-01T22:12:08.621Z,12.23
2022-11-01T22:14:37.433Z,10.40
2022-11-01T22:17:04.997Z,6.77
2022-11-01T22:19:32.421Z,7.70
2022-11-01T22:21:59.834Z,7.63
2022-11-01T22:24:27.370Z,6.90
2022-11-01T22:26:54.948Z,9.10
2022-11-01T22:29:22.356Z,10.67
2022-11-01T22:31:49.809Z,12.43
2022-11-01T22:34:17.464Z,14.30
2022-11-01T22:36:44.917Z,12.13
2022-11-01T22:39:22.971Z,11.23
2022-11-01T22:41:50.630Z,10.07
2022-11-01T22:44:27.540Z,9.30
2022-11-01T22:47:00.525Z,8.87
2022-11-01T22:49:50.579Z,8.10
2022-11-01T22:52:39.321Z,7.77
2022-11-01T22:55:19.148Z,8.17
2022-11-01T22:58:24.242Z,7.37
2022-11-01T23:00:51.831Z,8.23
2022-11-01T23:03:28.870Z,8.13
2022-11-01T23:06:00.353Z,8.80
2022-11-01T23:08:33.175Z,7.90
2022-11-01T23:11:01.800Z,8.63
2022-11-01T23:13:55.839Z,9.17
2022-11-01T23:16:36.626Z,8.90
2022-11-01T23:19:11.783Z,9.07
2022-11-01T23:21:39.627Z,8.80
2022-11-01T23:24:08.680Z,13.53
2022-11-01T23:26:36.128Z,12.30
2022-11-01T23:29:03.679Z,13.13
2022-11-01T23:31:31.382Z,11.90
2022-11-01T23:33:58.814Z,12.30
2022-11-01T23:36:29.355Z,12.27
2022-11-01T23:41:38.255Z,11.80
2022-11-01T23:44:20.776Z,11.77
2022-11-01T23:46:52.962Z,10.47
2022-11-01T23:49:25.421Z,9.40
2022-11-01T23:51:53.235Z,9.60
2022-11-01T23:54:36.478Z,9.10
2022-11-01T23:57:03.985Z,9.47
2022-11-01T23:59:31.765Z,9.67
